Jacksonport, AR

4:52 AM CDT on October 31, 2014 (GMT -0500)
Jonesboro Municipal | Change Station
CLOSE
Current Station
Airport
Location: Jonesboro,
Elevation: 262 ft
Nearby Weather Stations

Elev 262 ft 35.83 °N, 90.65 °W | Updated 59 minutes ago

Clear
Clear
48 °F
Feels Like 48 °F
N
6
Wind Variable Wind from NW

Today
High -- | Low -- °F
--% Chance of Precip.
Yesterday
High -- | Low -- °F
Precip. -- in
7:25 AM 6:10 PM
First Quarter, 53% visible
Pressure 30.01 in
Visibility 10.0 miles
Clouds Clear
Dew Point 47 °F
Humidity 96%
Rainfall 0.00 in
Snow Depth Not available.
UV 0 out of 12
Pollen 3.70 out of 12
Air Quality Not available.
Flu Activity Not available.
METAR KJBR 310853Z AUTO 31005KT 10SM CLR 09/08 A3001 RMK AO2 SLP160 T00890083 53006

More Conditions Fewer Conditions

Pressure 30.01 in
Visibility 10.0 miles
Clouds Clear
Dew Point 47 °F
Humidity 96%
Rainfall 0.00 in
Snow Depth Not available.
UV 0 out of 12
Pollen 3.70 out of 12
Air Quality Not available.
Flu Activity Not available.
METAR KJBR 310853Z AUTO 31005KT 10SM CLR 09/08 A3001 RMK AO2 SLP160 T00890083 53006

More Conditions Fewer Conditions

10-Day Weather Forecast

Almanac

Astronomy

Oct. 31, 2014 Rise Set
Actual Time
Civil Twilight
Nautical Twilight
Astronomical Twilight
Moon
Length of Visible Light
Length of Day
Tomorrow will be .
, % of the Moon is Illuminated

Today's Extremes

State Highs State Lows

Community

WunderPhotos

Upload Photos

1,766,577 photos uploaded!

WunderBlogs® & News

Nearby

Air Quality

  Air Quality AQ Index Pollutant
Not available.

Snow Depth

Station Depth Elevation

Earthquake Activity

City Distance Mag. Time & Date
Minimum magnitude displayed is 2.5.

Coastal Water Temperatures

Place Temperature

Nearby Weather Stations